Terminal Aerodrome Forecast
Issued by NWS Cleveland, OH

Home | Current Version | Previous Version | Graphics & Text | Print | Product List | Glossary Off
Versions: 1 2 3 4 5 6 7 8 9 10 11 12 13 14

000
FTUS41 KCLE 292321
TAFERI
TAF
KERI 292321Z 3000/3024 18010KT P6SM SCT080
     FM301400 20010KT P6SM SCT035
     FM301600 22012G20KT P6SM BKN045
     FM302100 21012G20KT P6SM BKN250=

USA.gov is the U.S. government's official web portal to all federal, state and local government web resources and services.